GOTK

Kédougou Airport

Kédougou, Senegal
METAR GOTK 210900Z 28008KT 9999 BKN016 SCT230 28/22 Q1014
Observed Flight Rules
Jun-21 @ 09:00 UTC (an hour ago) Marginal Visual Flight Rules
Wind Visibility Clouds
280° at 8 knots 10,000+ meters
  • Broken at 1,600' AGL
  • Scattered at 23,000' AGL
Temperatures Readings
Current 28°C / 82°F
Dewpoint 22°C / 72°F
Humidity 70%
Altimeter 29.94" Hg
Pressure 1014 hPa
Elevation 167
METAR GOTK 210900Z 28008KT 9999 BKN016 SCT230 28/22 Q1014
Observed Flight Rules
Jun-21 @ 09:00 UTC
(an hour ago)
MVFR
Wind Visibility
280° at 8 knots 10,000+ meters
Clouds
  • Broken at 1,600' AGL
  • Scattered at 23,000' AGL
Temperature Dewpoint
28°C / 82°F 22°C / 72°F
Humidity Altimeter Pressure
70% 29.94" Hg 1014 hPa